Ana Sayfa
METAR-TAF:

METAR-TAF

Havaalanları :

Charlevoix Municipal Airport

Charlevoix, Michigan, Amerika Birleşik Devletleri

Enlem: 45-18-17N, Boylam: 085-16-29W, yükseklik: 204 m

Güncel hava durumu gözlemi

Rapor saat 09:16 UTC de 20 dakika önce yapıldı.
Rüzgar kuzeydan 6 kt
Sıcaklık 17°C
Nem 68%
Basınç 1018 hPa
Görüş mesafesi: 16.1 km
5000 ft yükseklikte parçalı bulutlu

METAR: KCVX 220916Z AUTO 36006KT 10SM SCT050 17/11 A3005 RMK AO2 T01660111

Saat: 05:36 (09:36 UTC)


TAF: eksik

4.000'den fazla havaalanı için hava durumu gözlemleri ve tahminleri (METAR ve TAF raporları).

Kullanılabilir istasyonlar harita üzerinde sarı ve kırmızı noktalarla gösterilir.

İstasyonun adını görmek için fareyi noktanın üzerinde gezdirin.

Sonrasında hava gözlem ve tahminlerini görmek için tıklayın.

Haritayı değiştirmek için: yaklaştırmak için siyah artı işaretli yeşil düğmeye ve uzaklaştırmak için de eksi işaretli düğmeye hızla tıklayın; bitişik haritalar için yeşil okları kullanın.


METAR-TAF: